sensor_id;sensor_type;location;lat;lon;timestamp;P1;durP1;ratioP1;P2;durP2;ratioP2
79640;SDS011;69115;49.904;14.390;2023-10-13T00:01:59;15.85;;;8.57;;
79640;SDS011;69115;49.904;14.390;2023-10-13T00:04:26;17.33;;;8.68;;
79640;SDS011;69115;49.904;14.390;2023-10-13T00:06:52;14.45;;;8.52;;
79640;SDS011;69115;49.904;14.390;2023-10-13T00:09:18;15.63;;;8.98;;
79640;SDS011;69115;49.904;14.390;2023-10-13T00:11:50;14.60;;;8.00;;
79640;SDS011;69115;49.904;14.390;2023-10-13T00:14:17;17.08;;;11.57;;
79640;SDS011;69115;49.904;14.390;2023-10-13T00:16:43;17.63;;;11.23;;
79640;SDS011;69115;49.904;14.390;2023-10-13T00:19:31;18.55;;;11.65;;
79640;SDS011;69115;49.904;14.390;2023-10-13T00:22:09;20.92;;;12.38;;
79640;SDS011;69115;49.904;14.390;2023-10-13T00:24:35;19.02;;;11.18;;
79640;SDS011;69115;49.904;14.390;2023-10-13T00:30:02;17.60;;;10.68;;
79640;SDS011;69115;49.904;14.390;2023-10-13T00:32:47;16.95;;;10.68;;
79640;SDS011;69115;49.904;14.390;2023-10-13T00:35:20;18.40;;;10.32;;
79640;SDS011;69115;49.904;14.390;2023-10-13T00:38:01;16.77;;;10.50;;
79640;SDS011;69115;49.904;14.390;2023-10-13T00:40:37;18.08;;;11.00;;
79640;SDS011;69115;49.904;14.390;2023-10-13T00:43:03;17.40;;;10.00;;
79640;SDS011;69115;49.904;14.390;2023-10-13T00:45:52;17.38;;;10.27;;
79640;SDS011;69115;49.904;14.390;2023-10-13T00:48:28;17.95;;;10.55;;
79640;SDS011;69115;49.904;14.390;2023-10-13T00:53:33;16.85;;;10.25;;
79640;SDS011;69115;49.904;14.390;2023-10-13T00:56:02;15.88;;;9.27;;
79640;SDS011;69115;49.904;14.390;2023-10-13T00:58:35;15.05;;;8.63;;
79640;SDS011;69115;49.904;14.390;2023-10-13T01:01:04;15.15;;;8.63;;
79640;SDS011;69115;49.904;14.390;2023-10-13T01:03:47;13.43;;;8.82;;
79640;SDS011;69115;49.904;14.390;2023-10-13T01:06:33;15.68;;;8.50;;
79640;SDS011;69115;49.904;14.390;2023-10-13T01:09:02;17.42;;;9.55;;
79640;SDS011;69115;49.904;14.390;2023-10-13T01:11:43;18.73;;;9.73;;
79640;SDS011;69115;49.904;14.390;2023-10-13T01:14:13;19.10;;;10.20;;
79640;SDS011;69115;49.904;14.390;2023-10-13T01:16:42;15.93;;;9.52;;
79640;SDS011;69115;49.904;14.390;2023-10-13T01:19:15;16.55;;;10.20;;
79640;SDS011;69115;49.904;14.390;2023-10-13T01:21:49;17.20;;;10.20;;
79640;SDS011;69115;49.904;14.390;2023-10-13T01:24:15;16.30;;;10.48;;
79640;SDS011;69115;49.904;14.390;2023-10-13T01:26:42;16.48;;;9.20;;
79640;SDS011;69115;49.904;14.390;2023-10-13T01:29:08;15.48;;;9.60;;
79640;SDS011;69115;49.904;14.390;2023-10-13T01:31:44;15.75;;;9.73;;
79640;SDS011;69115;49.904;14.390;2023-10-13T01:34:17;15.98;;;9.38;;
79640;SDS011;69115;49.904;14.390;2023-10-13T01:36:50;18.83;;;9.63;;
79640;SDS011;69115;49.904;14.390;2023-10-13T01:39:17;12.38;;;8.70;;
79640;SDS011;69115;49.904;14.390;2023-10-13T01:41:43;19.02;;;8.95;;
79640;SDS011;69115;49.904;14.390;2023-10-13T01:44:09;13.88;;;8.63;;
79640;SDS011;69115;49.904;14.390;2023-10-13T01:46:39;13.63;;;8.60;;
79640;SDS011;69115;49.904;14.390;2023-10-13T01:49:07;12.85;;;8.52;;
79640;SDS011;69115;49.904;14.390;2023-10-13T01:51:33;12.50;;;7.93;;
79640;SDS011;69115;49.904;14.390;2023-10-13T01:53:58;12.55;;;8.27;;
79640;SDS011;69115;49.904;14.390;2023-10-13T01:56:24;15.02;;;8.50;;
79640;SDS011;69115;49.904;14.390;2023-10-13T01:58:50;12.30;;;7.45;;
79640;SDS011;69115;49.904;14.390;2023-10-13T02:01:17;15.63;;;8.07;;
79640;SDS011;69115;49.904;14.390;2023-10-13T02:03:55;12.43;;;8.10;;
79640;SDS011;69115;49.904;14.390;2023-10-13T02:06:29;14.73;;;7.18;;
79640;SDS011;69115;49.904;14.390;2023-10-13T02:09:08;12.80;;;7.70;;
79640;SDS011;69115;49.904;14.390;2023-10-13T02:11:50;11.43;;;7.32;;
79640;SDS011;69115;49.904;14.390;2023-10-13T02:14:19;15.07;;;7.25;;
79640;SDS011;69115;49.904;14.390;2023-10-13T02:16:50;16.88;;;7.20;;
79640;SDS011;69115;49.904;14.390;2023-10-13T02:19:20;13.07;;;7.75;;
79640;SDS011;69115;49.904;14.390;2023-10-13T02:21:46;12.57;;;6.88;;
79640;SDS011;69115;49.904;14.390;2023-10-13T02:24:23;11.05;;;6.55;;
79640;SDS011;69115;49.904;14.390;2023-10-13T02:26:55;11.45;;;6.88;;
79640;SDS011;69115;49.904;14.390;2023-10-13T02:29:27;13.18;;;6.90;;
79640;SDS011;69115;49.904;14.390;2023-10-13T02:31:53;14.70;;;6.43;;
79640;SDS011;69115;49.904;14.390;2023-10-13T02:34:22;13.00;;;7.30;;
79640;SDS011;69115;49.904;14.390;2023-10-13T02:36:48;10.90;;;6.45;;
79640;SDS011;69115;49.904;14.390;2023-10-13T02:39:14;9.48;;;6.47;;
79640;SDS011;69115;49.904;14.390;2023-10-13T02:41:49;16.30;;;7.32;;
79640;SDS011;69115;49.904;14.390;2023-10-13T02:44:15;12.75;;;7.22;;
79640;SDS011;69115;49.904;14.390;2023-10-13T02:46:51;10.63;;;6.28;;
79640;SDS011;69115;49.904;14.390;2023-10-13T02:49:17;15.48;;;7.20;;
79640;SDS011;69115;49.904;14.390;2023-10-13T02:51:44;10.93;;;6.65;;
79640;SDS011;69115;49.904;14.390;2023-10-13T02:54:10;12.80;;;6.72;;
79640;SDS011;69115;49.904;14.390;2023-10-13T02:56:40;11.95;;;6.80;;
79640;SDS011;69115;49.904;14.390;2023-10-13T02:59:24;12.27;;;6.78;;
79640;SDS011;69115;49.904;14.390;2023-10-13T03:02:05;15.30;;;7.18;;
79640;SDS011;69115;49.904;14.390;2023-10-13T03:04:58;12.65;;;7.07;;
79640;SDS011;69115;49.904;14.390;2023-10-13T03:07:42;13.40;;;6.80;;
79640;SDS011;69115;49.904;14.390;2023-10-13T03:10:09;15.32;;;6.90;;
79640;SDS011;69115;49.904;14.390;2023-10-13T03:12:35;13.00;;;7.28;;
79640;SDS011;69115;49.904;14.390;2023-10-13T03:15:02;13.13;;;7.43;;
79640;SDS011;69115;49.904;14.390;2023-10-13T03:17:57;11.52;;;7.10;;
79640;SDS011;69115;49.904;14.390;2023-10-13T03:20:24;13.55;;;7.20;;
79640;SDS011;69115;49.904;14.390;2023-10-13T03:22:56;15.00;;;7.78;;
79640;SDS011;69115;49.904;14.390;2023-10-13T03:25:22;12.20;;;7.05;;
79640;SDS011;69115;49.904;14.390;2023-10-13T03:27:53;15.30;;;7.43;;
79640;SDS011;69115;49.904;14.390;2023-10-13T03:30:18;16.00;;;7.10;;
79640;SDS011;69115;49.904;14.390;2023-10-13T03:32:46;11.60;;;7.20;;
79640;SDS011;69115;49.904;14.390;2023-10-13T03:35:12;14.93;;;7.57;;
79640;SDS011;69115;49.904;14.390;2023-10-13T03:37:50;12.43;;;7.32;;
79640;SDS011;69115;49.904;14.390;2023-10-13T03:40:16;11.00;;;6.93;;
79640;SDS011;69115;49.904;14.390;2023-10-13T03:42:44;11.65;;;6.90;;
79640;SDS011;69115;49.904;14.390;2023-10-13T03:45:22;9.80;;;6.65;;
79640;SDS011;69115;49.904;14.390;2023-10-13T03:47:50;11.88;;;7.00;;
79640;SDS011;69115;49.904;14.390;2023-10-13T03:50:16;11.40;;;7.30;;
79640;SDS011;69115;49.904;14.390;2023-10-13T03:52:55;13.02;;;6.90;;
79640;SDS011;69115;49.904;14.390;2023-10-13T03:55:24;12.05;;;6.53;;
79640;SDS011;69115;49.904;14.390;2023-10-13T03:57:55;14.40;;;7.28;;
79640;SDS011;69115;49.904;14.390;2023-10-13T04:00:24;13.02;;;7.47;;
79640;SDS011;69115;49.904;14.390;2023-10-13T04:02:51;13.38;;;6.70;;
79640;SDS011;69115;49.904;14.390;2023-10-13T04:05:35;13.48;;;7.53;;
79640;SDS011;69115;49.904;14.390;2023-10-13T04:08:06;13.90;;;8.32;;
79640;SDS011;69115;49.904;14.390;2023-10-13T04:10:51;14.10;;;7.95;;
79640;SDS011;69115;49.904;14.390;2023-10-13T04:13:17;16.23;;;8.70;;
79640;SDS011;69115;49.904;14.390;2023-10-13T04:16:00;13.30;;;8.20;;
79640;SDS011;69115;49.904;14.390;2023-10-13T04:18:45;16.42;;;8.50;;
79640;SDS011;69115;49.904;14.390;2023-10-13T04:21:33;15.88;;;9.20;;
79640;SDS011;69115;49.904;14.390;2023-10-13T04:24:05;18.25;;;9.73;;
79640;SDS011;69115;49.904;14.390;2023-10-13T04:26:50;14.98;;;9.45;;
79640;SDS011;69115;49.904;14.390;2023-10-13T04:29:35;19.23;;;9.07;;
79640;SDS011;69115;49.904;14.390;2023-10-13T04:32:38;16.45;;;8.60;;
79640;SDS011;69115;49.904;14.390;2023-10-13T04:35:06;18.95;;;9.10;;
79640;SDS011;69115;49.904;14.390;2023-10-13T04:37:42;13.68;;;8.43;;
79640;SDS011;69115;49.904;14.390;2023-10-13T04:40:27;16.15;;;8.70;;
79640;SDS011;69115;49.904;14.390;2023-10-13T04:43:00;15.52;;;8.13;;
79640;SDS011;69115;49.904;14.390;2023-10-13T04:45:52;16.00;;;7.88;;
79640;SDS011;69115;49.904;14.390;2023-10-13T04:48:20;12.25;;;7.65;;
79640;SDS011;69115;49.904;14.390;2023-10-13T04:50:48;16.23;;;8.38;;
79640;SDS011;69115;49.904;14.390;2023-10-13T04:53:24;14.18;;;8.27;;
79640;SDS011;69115;49.904;14.390;2023-10-13T04:55:55;15.77;;;7.95;;
79640;SDS011;69115;49.904;14.390;2023-10-13T04:58:26;13.85;;;7.55;;
79640;SDS011;69115;49.904;14.390;2023-10-13T05:01:04;14.68;;;7.80;;
79640;SDS011;69115;49.904;14.390;2023-10-13T05:04:08;13.75;;;8.07;;
79640;SDS011;69115;49.904;14.390;2023-10-13T05:06:47;10.27;;;7.30;;
79640;SDS011;69115;49.904;14.390;2023-10-13T05:09:31;10.68;;;7.35;;
79640;SDS011;69115;49.904;14.390;2023-10-13T05:12:15;13.77;;;7.82;;
79640;SDS011;69115;49.904;14.390;2023-10-13T05:14:58;14.30;;;7.85;;
79640;SDS011;69115;49.904;14.390;2023-10-13T05:17:42;16.38;;;8.30;;
79640;SDS011;69115;49.904;14.390;2023-10-13T05:20:26;14.48;;;7.85;;
79640;SDS011;69115;49.904;14.390;2023-10-13T05:23:10;13.25;;;8.20;;
79640;SDS011;69115;49.904;14.390;2023-10-13T05:26:08;13.70;;;9.07;;
79640;SDS011;69115;49.904;14.390;2023-10-13T05:28:52;17.77;;;9.25;;
79640;SDS011;69115;49.904;14.390;2023-10-13T05:31:41;15.10;;;9.23;;
79640;SDS011;69115;49.904;14.390;2023-10-13T05:34:24;14.23;;;8.88;;
79640;SDS011;69115;49.904;14.390;2023-10-13T05:37:08;15.75;;;9.07;;
79640;SDS011;69115;49.904;14.390;2023-10-13T05:39:52;13.55;;;8.38;;
79640;SDS011;69115;49.904;14.390;2023-10-13T05:42:36;17.20;;;7.63;;
79640;SDS011;69115;49.904;14.390;2023-10-13T05:45:20;14.55;;;8.00;;
79640;SDS011;69115;49.904;14.390;2023-10-13T05:48:01;16.00;;;8.02;;
79640;SDS011;69115;49.904;14.390;2023-10-13T05:50:36;16.50;;;8.52;;
79640;SDS011;69115;49.904;14.390;2023-10-13T05:53:20;14.35;;;7.63;;
79640;SDS011;69115;49.904;14.390;2023-10-13T05:56:04;11.70;;;7.90;;
79640;SDS011;69115;49.904;14.390;2023-10-13T05:58:55;13.60;;;8.10;;
79640;SDS011;69115;49.904;14.390;2023-10-13T06:01:39;12.48;;;7.63;;
79640;SDS011;69115;49.904;14.390;2023-10-13T06:04:23;14.45;;;8.73;;
79640;SDS011;69115;49.904;14.390;2023-10-13T06:07:07;15.88;;;8.32;;
79640;SDS011;69115;49.904;14.390;2023-10-13T06:09:51;15.18;;;8.07;;
79640;SDS011;69115;49.904;14.390;2023-10-13T06:12:35;13.65;;;7.80;;
79640;SDS011;69115;49.904;14.390;2023-10-13T06:15:19;12.85;;;7.75;;
79640;SDS011;69115;49.904;14.390;2023-10-13T06:18:03;14.00;;;8.25;;
79640;SDS011;69115;49.904;14.390;2023-10-13T06:20:47;13.95;;;8.48;;
79640;SDS011;69115;49.904;14.390;2023-10-13T06:23:30;12.00;;;7.60;;
79640;SDS011;69115;49.904;14.390;2023-10-13T06:26:15;13.77;;;7.72;;
79640;SDS011;69115;49.904;14.390;2023-10-13T06:28:59;14.82;;;8.63;;
79640;SDS011;69115;49.904;14.390;2023-10-13T06:31:24;15.52;;;8.88;;
79640;SDS011;69115;49.904;14.390;2023-10-13T06:33:51;12.27;;;7.88;;
79640;SDS011;69115;49.904;14.390;2023-10-13T06:36:16;14.35;;;8.07;;
79640;SDS011;69115;49.904;14.390;2023-10-13T06:38:42;14.57;;;7.95;;
79640;SDS011;69115;49.904;14.390;2023-10-13T06:41:08;12.93;;;7.72;;
79640;SDS011;69115;49.904;14.390;2023-10-13T06:43:36;11.98;;;7.45;;
79640;SDS011;69115;49.904;14.390;2023-10-13T06:46:06;14.82;;;9.60;;
79640;SDS011;69115;49.904;14.390;2023-10-13T06:48:32;19.55;;;10.95;;
79640;SDS011;69115;49.904;14.390;2023-10-13T06:51:05;18.60;;;10.10;;
79640;SDS011;69115;49.904;14.390;2023-10-13T06:53:42;17.67;;;9.38;;
79640;SDS011;69115;49.904;14.390;2023-10-13T06:56:12;20.52;;;10.65;;
79640;SDS011;69115;49.904;14.390;2023-10-13T06:58:43;20.02;;;11.25;;
79640;SDS011;69115;49.904;14.390;2023-10-13T07:01:09;17.55;;;9.48;;
79640;SDS011;69115;49.904;14.390;2023-10-13T07:03:40;14.77;;;9.15;;
79640;SDS011;69115;49.904;14.390;2023-10-13T07:06:08;17.70;;;9.57;;
79640;SDS011;69115;49.904;14.390;2023-10-13T07:08:43;14.77;;;8.93;;
79640;SDS011;69115;49.904;14.390;2023-10-13T07:11:17;16.15;;;8.27;;
79640;SDS011;69115;49.904;14.390;2023-10-13T07:13:58;14.73;;;7.70;;
79640;SDS011;69115;49.904;14.390;2023-10-13T07:16:35;14.82;;;8.55;;
79640;SDS011;69115;49.904;14.390;2023-10-13T07:19:23;18.17;;;8.80;;
79640;SDS011;69115;49.904;14.390;2023-10-13T07:21:50;18.35;;;9.90;;
79640;SDS011;69115;49.904;14.390;2023-10-13T07:24:23;14.65;;;9.18;;
79640;SDS011;69115;49.904;14.390;2023-10-13T07:26:49;21.35;;;10.25;;
79640;SDS011;69115;49.904;14.390;2023-10-13T07:29:22;15.32;;;9.68;;
79640;SDS011;69115;49.904;14.390;2023-10-13T07:31:50;15.85;;;9.23;;
79640;SDS011;69115;49.904;14.390;2023-10-13T07:34:15;14.90;;;8.32;;
79640;SDS011;69115;49.904;14.390;2023-10-13T07:36:51;14.35;;;7.50;;
79640;SDS011;69115;49.904;14.390;2023-10-13T07:39:17;13.00;;;7.07;;
79640;SDS011;69115;49.904;14.390;2023-10-13T07:41:49;12.35;;;6.93;;
79640;SDS011;69115;49.904;14.390;2023-10-13T07:44:34;12.13;;;6.97;;
79640;SDS011;69115;49.904;14.390;2023-10-13T07:47:01;14.80;;;7.53;;
79640;SDS011;69115;49.904;14.390;2023-10-13T07:49:29;14.10;;;7.53;;
79640;SDS011;69115;49.904;14.390;2023-10-13T07:52:00;12.02;;;7.22;;
79640;SDS011;69115;49.904;14.390;2023-10-13T07:54:28;14.52;;;6.82;;
79640;SDS011;69115;49.904;14.390;2023-10-13T07:56:54;12.07;;;6.35;;
79640;SDS011;69115;49.904;14.390;2023-10-13T07:59:20;9.80;;;6.07;;
79640;SDS011;69115;49.904;14.390;2023-10-13T08:01:49;11.20;;;6.28;;
79640;SDS011;69115;49.904;14.390;2023-10-13T08:04:34;12.07;;;6.18;;
79640;SDS011;69115;49.904;14.390;2023-10-13T08:07:01;10.73;;;6.85;;
79640;SDS011;69115;49.904;14.390;2023-10-13T08:09:39;12.38;;;6.10;;
79640;SDS011;69115;49.904;14.390;2023-10-13T08:12:06;10.60;;;5.82;;
79640;SDS011;69115;49.904;14.390;2023-10-13T08:14:36;15.93;;;6.80;;
79640;SDS011;69115;49.904;14.390;2023-10-13T08:17:03;12.18;;;6.65;;
79640;SDS011;69115;49.904;14.390;2023-10-13T08:19:33;12.40;;;7.30;;
79640;SDS011;69115;49.904;14.390;2023-10-13T08:22:25;12.35;;;6.30;;
79640;SDS011;69115;49.904;14.390;2023-10-13T08:24:51;11.88;;;6.45;;
79640;SDS011;69115;49.904;14.390;2023-10-13T08:27:20;11.52;;;6.22;;
79640;SDS011;69115;49.904;14.390;2023-10-13T08:29:58;10.27;;;6.38;;
79640;SDS011;69115;49.904;14.390;2023-10-13T08:32:24;16.30;;;6.50;;
79640;SDS011;69115;49.904;14.390;2023-10-13T08:34:54;11.38;;;5.93;;
79640;SDS011;69115;49.904;14.390;2023-10-13T08:37:32;9.98;;;6.40;;
79640;SDS011;69115;49.904;14.390;2023-10-13T08:40:02;15.38;;;6.68;;
79640;SDS011;69115;49.904;14.390;2023-10-13T08:42:34;12.57;;;6.00;;
79640;SDS011;69115;49.904;14.390;2023-10-13T08:47:59;10.75;;;5.63;;
79640;SDS011;69115;49.904;14.390;2023-10-13T08:50:37;15.30;;;6.28;;
79640;SDS011;69115;49.904;14.390;2023-10-13T08:56:05;10.88;;;5.57;;
79640;SDS011;69115;49.904;14.390;2023-10-13T09:01:18;11.35;;;5.80;;
79640;SDS011;69115;49.904;14.390;2023-10-13T09:06:47;11.45;;;5.57;;
79640;SDS011;69115;49.904;14.390;2023-10-13T09:14:41;12.57;;;5.20;;
79640;SDS011;69115;49.904;14.390;2023-10-13T09:17:13;16.63;;;5.88;;
79640;SDS011;69115;49.904;14.390;2023-10-13T09:19:48;9.85;;;5.05;;
79640;SDS011;69115;49.904;14.390;2023-10-13T09:22:24;14.30;;;5.15;;
79640;SDS011;69115;49.904;14.390;2023-10-13T09:25:03;9.52;;;5.18;;
79640;SDS011;69115;49.904;14.390;2023-10-13T09:27:38;13.68;;;5.05;;
79640;SDS011;69115;49.904;14.390;2023-10-13T09:30:05;10.65;;;5.07;;
79640;SDS011;69115;49.904;14.390;2023-10-13T09:33:02;13.18;;;5.43;;
79640;SDS011;69115;49.904;14.390;2023-10-13T09:35:33;11.07;;;5.20;;
79640;SDS011;69115;49.904;14.390;2023-10-13T09:38:02;14.63;;;5.75;;
79640;SDS011;69115;49.904;14.390;2023-10-13T09:40:28;12.60;;;5.65;;
79640;SDS011;69115;49.904;14.390;2023-10-13T09:42:57;10.05;;;5.10;;
79640;SDS011;69115;49.904;14.390;2023-10-13T09:45:28;14.15;;;5.43;;
79640;SDS011;69115;49.904;14.390;2023-10-13T09:48:01;16.35;;;5.85;;
79640;SDS011;69115;49.904;14.390;2023-10-13T09:50:31;11.35;;;5.28;;
79640;SDS011;69115;49.904;14.390;2023-10-13T09:53:02;14.50;;;5.72;;
79640;SDS011;69115;49.904;14.390;2023-10-13T09:55:35;11.23;;;5.68;;
79640;SDS011;69115;49.904;14.390;2023-10-13T09:58:07;11.50;;;5.25;;
79640;SDS011;69115;49.904;14.390;2023-10-13T10:00:43;12.65;;;5.47;;
79640;SDS011;69115;49.904;14.390;2023-10-13T10:03:23;13.23;;;5.20;;
79640;SDS011;69115;49.904;14.390;2023-10-13T10:06:04;9.77;;;5.50;;
79640;SDS011;69115;49.904;14.390;2023-10-13T10:08:31;10.73;;;5.28;;
79640;SDS011;69115;49.904;14.390;2023-10-13T10:19:32;14.40;;;5.55;;
79640;SDS011;69115;49.904;14.390;2023-10-13T10:22:04;13.88;;;5.47;;
79640;SDS011;69115;49.904;14.390;2023-10-13T10:24:56;10.38;;;5.38;;
79640;SDS011;69115;49.904;14.390;2023-10-13T10:27:23;13.02;;;5.28;;
79640;SDS011;69115;49.904;14.390;2023-10-13T10:29:53;9.70;;;5.28;;
79640;SDS011;69115;49.904;14.390;2023-10-13T10:32:19;13.90;;;5.82;;
79640;SDS011;69115;49.904;14.390;2023-10-13T10:34:44;11.65;;;5.95;;
79640;SDS011;69115;49.904;14.390;2023-10-13T10:37:10;13.63;;;5.30;;
79640;SDS011;69115;49.904;14.390;2023-10-13T10:39:37;12.27;;;5.57;;
79640;SDS011;69115;49.904;14.390;2023-10-13T10:42:13;10.90;;;5.38;;
79640;SDS011;69115;49.904;14.390;2023-10-13T10:44:49;12.02;;;5.68;;
79640;SDS011;69115;49.904;14.390;2023-10-13T10:47:20;9.73;;;5.82;;
79640;SDS011;69115;49.904;14.390;2023-10-13T10:50:04;15.85;;;5.60;;
79640;SDS011;69115;49.904;14.390;2023-10-13T10:52:44;13.70;;;6.05;;
79640;SDS011;69115;49.904;14.390;2023-10-13T10:55:11;11.98;;;5.47;;
79640;SDS011;69115;49.904;14.390;2023-10-13T10:57:44;17.77;;;6.28;;
79640;SDS011;69115;49.904;14.390;2023-10-13T11:00:19;9.48;;;5.35;;
79640;SDS011;69115;49.904;14.390;2023-10-13T11:02:55;14.68;;;5.45;;
79640;SDS011;69115;49.904;14.390;2023-10-13T11:05:21;15.32;;;5.85;;
79640;SDS011;69115;49.904;14.390;2023-10-13T11:07:49;11.07;;;5.25;;
79640;SDS011;69115;49.904;14.390;2023-10-13T11:10:16;10.77;;;5.72;;
79640;SDS011;69115;49.904;14.390;2023-10-13T11:12:57;16.25;;;6.13;;
79640;SDS011;69115;49.904;14.390;2023-10-13T11:15:43;10.07;;;5.50;;
79640;SDS011;69115;49.904;14.390;2023-10-13T11:18:13;9.65;;;5.38;;
79640;SDS011;69115;49.904;14.390;2023-10-13T11:20:44;13.00;;;5.50;;
79640;SDS011;69115;49.904;14.390;2023-10-13T11:23:13;12.85;;;5.13;;
79640;SDS011;69115;49.904;14.390;2023-10-13T11:25:39;13.45;;;5.50;;
79640;SDS011;69115;49.904;14.390;2023-10-13T11:30:42;15.60;;;5.40;;
79640;SDS011;69115;49.904;14.390;2023-10-13T11:33:15;11.75;;;5.32;;
79640;SDS011;69115;49.904;14.390;2023-10-13T11:35:44;12.23;;;5.32;;
79640;SDS011;69115;49.904;14.390;2023-10-13T11:38:25;14.93;;;5.43;;
79640;SDS011;69115;49.904;14.390;2023-10-13T11:41:07;13.82;;;5.82;;
79640;SDS011;69115;49.904;14.390;2023-10-13T11:46:16;13.65;;;5.78;;
79640;SDS011;69115;49.904;14.390;2023-10-13T11:49:00;13.20;;;5.70;;
79640;SDS011;69115;49.904;14.390;2023-10-13T11:51:48;14.68;;;5.28;;
79640;SDS011;69115;49.904;14.390;2023-10-13T11:54:15;13.45;;;5.55;;
79640;SDS011;69115;49.904;14.390;2023-10-13T11:56:42;9.35;;;5.20;;
79640;SDS011;69115;49.904;14.390;2023-10-13T11:59:08;11.40;;;5.15;;
79640;SDS011;69115;49.904;14.390;2023-10-13T12:01:45;15.02;;;5.35;;
79640;SDS011;69115;49.904;14.390;2023-10-13T12:04:29;14.35;;;5.63;;
79640;SDS011;69115;49.904;14.390;2023-10-13T12:07:00;15.63;;;5.53;;
79640;SDS011;69115;49.904;14.390;2023-10-13T12:09:45;13.35;;;5.00;;
79640;SDS011;69115;49.904;14.390;2023-10-13T12:12:17;12.27;;;5.25;;
79640;SDS011;69115;49.904;14.390;2023-10-13T12:14:42;10.20;;;5.25;;
79640;SDS011;69115;49.904;14.390;2023-10-13T12:17:17;12.63;;;5.10;;
79640;SDS011;69115;49.904;14.390;2023-10-13T12:20:02;12.73;;;5.53;;
79640;SDS011;69115;49.904;14.390;2023-10-13T12:22:30;12.25;;;5.18;;
79640;SDS011;69115;49.904;14.390;2023-10-13T12:25:10;10.13;;;4.80;;
79640;SDS011;69115;49.904;14.390;2023-10-13T12:27:56;11.65;;;5.07;;
79640;SDS011;69115;49.904;14.390;2023-10-13T12:30:22;12.15;;;4.78;;
79640;SDS011;69115;49.904;14.390;2023-10-13T12:33:01;12.80;;;4.35;;
79640;SDS011;69115;49.904;14.390;2023-10-13T12:35:36;11.88;;;4.45;;
79640;SDS011;69115;49.904;14.390;2023-10-13T12:38:23;9.02;;;4.10;;
79640;SDS011;69115;49.904;14.390;2023-10-13T12:41:08;12.40;;;4.80;;
79640;SDS011;69115;49.904;14.390;2023-10-13T12:43:52;11.63;;;4.63;;
79640;SDS011;69115;49.904;14.390;2023-10-13T12:46:36;7.75;;;4.05;;
79640;SDS011;69115;49.904;14.390;2023-10-13T12:49:20;14.23;;;4.47;;
79640;SDS011;69115;49.904;14.390;2023-10-13T12:52:05;10.63;;;3.95;;
79640;SDS011;69115;49.904;14.390;2023-10-13T12:54:41;14.85;;;5.25;;
79640;SDS011;69115;49.904;14.390;2023-10-13T12:57:21;14.75;;;4.20;;
79640;SDS011;69115;49.904;14.390;2023-10-13T12:59:50;11.43;;;4.60;;
79640;SDS011;69115;49.904;14.390;2023-10-13T13:02:22;11.15;;;4.40;;
79640;SDS011;69115;49.904;14.390;2023-10-13T13:04:50;10.70;;;4.15;;
79640;SDS011;69115;49.904;14.390;2023-10-13T13:07:39;14.55;;;4.72;;
79640;SDS011;69115;49.904;14.390;2023-10-13T13:10:12;8.50;;;4.40;;
79640;SDS011;69115;49.904;14.390;2023-10-13T13:12:38;9.88;;;4.50;;
79640;SDS011;69115;49.904;14.390;2023-10-13T13:15:04;10.07;;;4.30;;
79640;SDS011;69115;49.904;14.390;2023-10-13T13:17:34;10.90;;;4.38;;
79640;SDS011;69115;49.904;14.390;2023-10-13T13:20:00;9.13;;;4.45;;
79640;SDS011;69115;49.904;14.390;2023-10-13T13:22:25;9.93;;;4.35;;
79640;SDS011;69115;49.904;14.390;2023-10-13T13:24:52;10.20;;;4.22;;
79640;SDS011;69115;49.904;14.390;2023-10-13T13:27:18;7.80;;;4.00;;
79640;SDS011;69115;49.904;14.390;2023-10-13T13:29:44;9.55;;;4.15;;
79640;SDS011;69115;49.904;14.390;2023-10-13T13:32:10;9.15;;;4.18;;
79640;SDS011;69115;49.904;14.390;2023-10-13T13:34:49;15.00;;;4.72;;
79640;SDS011;69115;49.904;14.390;2023-10-13T13:39:56;10.43;;;4.47;;
79640;SDS011;69115;49.904;14.390;2023-10-13T13:42:38;10.57;;;4.80;;
79640;SDS011;69115;49.904;14.390;2023-10-13T13:45:06;13.45;;;4.63;;
79640;SDS011;69115;49.904;14.390;2023-10-13T13:47:36;11.00;;;4.90;;
79640;SDS011;69115;49.904;14.390;2023-10-13T13:50:02;11.95;;;4.57;;
79640;SDS011;69115;49.904;14.390;2023-10-13T13:55:10;8.55;;;4.20;;
79640;SDS011;69115;49.904;14.390;2023-10-13T13:57:42;10.93;;;4.28;;
79640;SDS011;69115;49.904;14.390;2023-10-13T14:00:11;9.88;;;4.03;;
79640;SDS011;69115;49.904;14.390;2023-10-13T14:02:42;13.77;;;4.43;;
79640;SDS011;69115;49.904;14.390;2023-10-13T14:05:12;13.60;;;4.07;;
79640;SDS011;69115;49.904;14.390;2023-10-13T14:07:44;7.80;;;3.92;;
79640;SDS011;69115;49.904;14.390;2023-10-13T14:10:16;9.85;;;4.07;;
79640;SDS011;69115;49.904;14.390;2023-10-13T14:12:56;11.55;;;4.03;;
79640;SDS011;69115;49.904;14.390;2023-10-13T14:15:32;13.13;;;4.55;;
79640;SDS011;69115;49.904;14.390;2023-10-13T14:18:05;9.40;;;4.10;;
79640;SDS011;69115;49.904;14.390;2023-10-13T14:20:32;9.52;;;4.15;;
79640;SDS011;69115;49.904;14.390;2023-10-13T14:23:04;13.05;;;4.03;;
79640;SDS011;69115;49.904;14.390;2023-10-13T14:25:32;10.48;;;4.13;;
79640;SDS011;69115;49.904;14.390;2023-10-13T14:30:28;8.77;;;3.90;;
79640;SDS011;69115;49.904;14.390;2023-10-13T14:32:56;10.73;;;4.10;;
79640;SDS011;69115;49.904;14.390;2023-10-13T14:35:23;12.52;;;4.22;;
79640;SDS011;69115;49.904;14.390;2023-10-13T14:37:54;12.75;;;4.18;;
79640;SDS011;69115;49.904;14.390;2023-10-13T14:40:20;16.40;;;4.45;;
79640;SDS011;69115;49.904;14.390;2023-10-13T14:42:48;10.00;;;4.13;;
79640;SDS011;69115;49.904;14.390;2023-10-13T14:45:14;11.00;;;3.90;;
79640;SDS011;69115;49.904;14.390;2023-10-13T14:47:41;12.05;;;4.00;;
79640;SDS011;69115;49.904;14.390;2023-10-13T14:50:07;9.75;;;3.75;;
79640;SDS011;69115;49.904;14.390;2023-10-13T14:52:39;10.73;;;4.03;;
79640;SDS011;69115;49.904;14.390;2023-10-13T14:55:05;11.13;;;3.78;;
79640;SDS011;69115;49.904;14.390;2023-10-13T14:57:44;6.32;;;3.50;;
79640;SDS011;69115;49.904;14.390;2023-10-13T15:00:11;9.55;;;4.20;;
79640;SDS011;69115;49.904;14.390;2023-10-13T15:02:39;12.95;;;4.20;;
79640;SDS011;69115;49.904;14.390;2023-10-13T15:05:08;12.05;;;3.97;;
79640;SDS011;69115;49.904;14.390;2023-10-13T15:07:41;7.88;;;4.28;;
79640;SDS011;69115;49.904;14.390;2023-10-13T15:10:10;10.05;;;4.10;;
79640;SDS011;69115;49.904;14.390;2023-10-13T15:12:40;9.20;;;3.90;;
79640;SDS011;69115;49.904;14.390;2023-10-13T15:15:07;12.10;;;3.97;;
79640;SDS011;69115;49.904;14.390;2023-10-13T15:17:38;9.88;;;4.22;;
79640;SDS011;69115;49.904;14.390;2023-10-13T15:20:05;8.23;;;3.85;;
79640;SDS011;69115;49.904;14.390;2023-10-13T15:22:33;15.45;;;4.63;;
79640;SDS011;69115;49.904;14.390;2023-10-13T15:25:00;13.75;;;4.43;;
79640;SDS011;69115;49.904;14.390;2023-10-13T15:27:42;13.13;;;4.50;;
79640;SDS011;69115;49.904;14.390;2023-10-13T15:30:08;7.80;;;3.85;;
79640;SDS011;69115;49.904;14.390;2023-10-13T15:32:48;10.20;;;5.00;;
79640;SDS011;69115;49.904;14.390;2023-10-13T15:35:14;11.82;;;4.55;;
79640;SDS011;69115;49.904;14.390;2023-10-13T15:37:41;8.90;;;4.63;;
79640;SDS011;69115;49.904;14.390;2023-10-13T15:40:12;11.60;;;4.63;;
79640;SDS011;69115;49.904;14.390;2023-10-13T15:42:41;9.63;;;4.60;;